Terminal Aerodrome Forecast
Issued by NWS

Home | Current Version | Previous Version | Text Only | Print | Product List | Glossary On
Versions: 1 2 3 4 5 6 7 8 9 10 11 12 13 14 15 16 17 18 19 20
178
FTUS46 KLOX 241724
TAFLGB
TAF
KLGB 241724Z 2418/2518 15007KT P6SM BKN045
     FM242000 20010KT P6SM BKN050
     FM250100 27008KT P6SM OVC050
     FM250700 VRB03KT P6SM BKN020 BKN040=

USA.gov is the U.S. government's official web portal to all federal, state and local government web resources and services.